Time;durP1;ratioP1;P1;durP2;ratioP2;P2;SDS_P1;SDS_P2;PMS_P1;PMS_P2;Temp;Humidity;BMP_temperature;BMP_pressure;BME280_temperature;BME280_humidity;BME280_pressure;Samples;Min_cycle;Max_cycle;Signal;HPM_P1;HPM_P2
2020/12/16 00:01:17;;;;;;;0.57;0.57;;;7.30;99.90;;;;;;5071243;28;20701;-86
2020/12/16 00:03:43;;;;;;;0.33;0.33;;;7.30;99.90;;;;;;5076417;28;20183;-86
2020/12/16 00:06:09;;;;;;;0.30;0.30;;;7.20;99.90;;;;;;5071562;28;20607;-86
2020/12/16 00:08:34;;;;;;;0.47;0.47;;;7.10;99.90;;;;;;5076198;28;20235;-87
2020/12/16 00:11:00;;;;;;;0.40;0.40;;;6.90;99.90;;;;;;5071615;28;20224;-84
2020/12/16 00:13:25;;;;;;;0.30;0.30;;;6.70;99.90;;;;;;5072857;28;20254;-86
2020/12/16 00:15:51;;;;;;;0.37;0.37;;;7.00;99.90;;;;;;5072814;28;20199;-86
2020/12/16 00:18:17;;;;;;;0.73;0.40;;;7.00;99.90;;;;;;5070667;28;20848;-85
2020/12/16 00:20:43;;;;;;;0.40;0.27;;;7.10;99.90;;;;;;5072455;28;20205;-86
2020/12/16 00:23:10;;;;;;;0.50;0.47;;;7.00;99.90;;;;;;5073666;28;20680;-86
2020/12/16 00:25:36;;;;;;;0.33;0.33;;;7.10;99.90;;;;;;5071589;28;20732;-85
2020/12/16 00:28:01;;;;;;;0.73;0.73;;;7.00;99.90;;;;;;5070308;28;20260;-85
2020/12/16 00:30:27;;;;;;;0.20;0.20;;;7.00;99.90;;;;;;5071277;28;20216;-86
2020/12/16 00:32:52;;;;;;;0.40;0.40;;;6.80;99.90;;;;;;5071031;28;20785;-87
2020/12/16 00:35:18;;;;;;;0.30;0.30;;;6.70;99.90;;;;;;5071331;28;20284;-84
2020/12/16 00:37:44;;;;;;;0.50;0.40;;;6.70;99.90;;;;;;5070854;28;20177;-85
2020/12/16 00:40:12;;;;;;;0.60;0.50;;;6.70;99.90;;;;;;5071385;28;20758;-84
2020/12/16 00:42:38;;;;;;;0.43;0.43;;;6.70;99.90;;;;;;5071741;28;20211;-86
2020/12/16 00:45:05;;;;;;;1.40;0.90;;;6.60;99.90;;;;;;5070978;28;20719;-85
2020/12/16 00:47:37;;;;;;;0.50;0.50;;;6.40;99.90;;;;;;5072250;28;20255;-85
2020/12/16 00:50:04;;;;;;;1.17;0.30;;;6.30;99.90;;;;;;5071750;28;20234;-85
2020/12/16 00:52:30;;;;;;;0.20;0.20;;;6.20;99.90;;;;;;5070480;28;20224;-85
2020/12/16 00:54:56;;;;;;;0.30;0.30;;;6.20;99.90;;;;;;5071766;28;20207;-85
2020/12/16 00:57:21;;;;;;;0.20;0.20;;;6.10;99.90;;;;;;5063177;28;20238;-85
2020/12/16 00:59:48;;;;;;;0.13;0.13;;;6.10;99.90;;;;;;5071473;28;20421;-85
2020/12/16 01:02:13;;;;;;;1.23;0.87;;;6.10;99.90;;;;;;5066976;28;20218;-86
2020/12/16 01:04:39;;;;;;;1.03;0.60;;;6.10;99.90;;;;;;5070790;28;20191;-86
2020/12/16 01:07:04;;;;;;;0.93;0.73;;;6.10;99.90;;;;;;5070663;28;20241;-86
2020/12/16 01:09:30;;;;;;;0.50;0.50;;;6.00;99.90;;;;;;5071654;28;20191;-85
2020/12/16 01:11:56;;;;;;;0.50;0.50;;;6.00;99.90;;;;;;5070110;28;20572;-86
2020/12/16 01:14:21;;;;;;;0.20;0.20;;;5.90;99.90;;;;;;5070675;28;20675;-86
2020/12/16 01:16:47;;;;;;;0.20;0.20;;;5.90;99.90;;;;;;5070229;28;20188;-84
2020/12/16 01:19:12;;;;;;;0.43;0.43;;;5.90;99.90;;;;;;5071924;28;20192;-83
2020/12/16 01:21:39;;;;;;;0.80;0.60;;;6.00;99.90;;;;;;5073674;28;20206;-83
2020/12/16 01:24:08;;;;;;;0.53;0.30;;;5.90;99.90;;;;;;5075522;28;20216;-83
2020/12/16 01:26:46;;;;;;;0.40;0.40;;;5.90;99.90;;;;;;5071292;28;20696;-83
2020/12/16 01:29:15;;;;;;;0.27;0.27;;;5.90;99.90;;;;;;5071674;28;20232;-83
2020/12/16 01:31:42;;;;;;;0.40;0.40;;;6.00;99.90;;;;;;5071559;28;20282;-83
2020/12/16 01:34:09;;;;;;;0.10;0.10;;;5.90;99.90;;;;;;5071628;28;20693;-83
2020/12/16 01:36:42;;;;;;;0.13;0.13;;;6.00;99.90;;;;;;5068591;28;20197;-84
2020/12/16 01:39:10;;;;;;;0.37;0.37;;;6.00;99.90;;;;;;5070731;28;20195;-83
2020/12/16 01:41:47;;;;;;;0.10;0.10;;;6.10;99.90;;;;;;5071086;28;20735;-84
2020/12/16 01:44:16;;;;;;;0.20;0.20;;;6.00;99.90;;;;;;5060393;28;20191;-82
2020/12/16 01:46:52;;;;;;;0.57;0.53;;;6.10;99.90;;;;;;5071333;28;20209;-83
2020/12/16 01:49:22;;;;;;;0.40;0.40;;;6.10;99.90;;;;;;5070657;28;20191;-84
2020/12/16 01:52:06;;;;;;;0.83;0.40;;;6.20;99.90;;;;;;5069409;28;20710;-83
2020/12/16 01:54:36;;;;;;;0.83;0.23;;;6.20;99.90;;;;;;5070113;28;20584;-83
2020/12/16 01:57:04;;;;;;;0.20;0.20;;;6.30;99.90;;;;;;5067887;28;20660;-85
2020/12/16 01:59:37;;;;;;;0.30;0.30;;;6.30;99.90;;;;;;5069491;28;20199;-85
2020/12/16 02:02:05;;;;;;;0.20;0.20;;;6.40;99.90;;;;;;5077712;28;20297;-85
2020/12/16 02:04:41;;;;;;;0.37;0.37;;;6.30;99.90;;;;;;5072724;28;20709;-85
2020/12/16 02:07:09;;;;;;;0.33;0.33;;;6.30;99.90;;;;;;5092618;28;20580;-86
2020/12/16 02:09:43;;;;;;;0.40;0.40;;;6.40;99.90;;;;;;5068794;28;20207;-84
2020/12/16 02:12:14;;;;;;;1.70;0.30;;;6.50;99.90;;;;;;5071471;28;20274;-86
2020/12/16 02:14:41;;;;;;;0.30;0.30;;;6.60;99.90;;;;;;5069867;28;20188;-84
2020/12/16 02:17:08;;;;;;;0.30;0.30;;;6.80;99.90;;;;;;5082458;28;20196;-85
2020/12/16 02:19:54;;;;;;;0.40;0.40;;;7.00;99.90;;;;;;5066733;28;20214;-86
2020/12/16 02:22:19;;;;;;;0.10;0.10;;;7.20;99.90;;;;;;5076476;28;20208;-86
2020/12/16 02:25:15;;;;;;;0.20;0.20;;;7.20;99.90;;;;;;5069211;28;20181;-84
2020/12/16 02:27:42;;;;;;;0.67;0.60;;;7.30;99.90;;;;;;5047272;28;20232;-86
2020/12/16 02:30:13;;;;;;;0.23;0.23;;;7.30;99.90;;;;;;5065836;28;20539;-85
2020/12/16 02:32:40;;;;;;;0.20;0.20;;;7.40;99.90;;;;;;5069877;28;20197;-86
2020/12/16 02:35:07;;;;;;;0.30;0.30;;;7.50;99.90;;;;;;5071803;28;20730;-85
2020/12/16 02:37:32;;;;;;;0.27;0.27;;;7.50;99.90;;;;;;5073893;28;20188;-87
2020/12/16 02:39:58;;;;;;;0.20;0.20;;;7.60;99.90;;;;;;5074222;28;20256;-86
2020/12/16 02:42:28;;;;;;;0.90;0.20;;;7.70;99.90;;;;;;5072856;28;20211;-87
2020/12/16 02:44:57;;;;;;;0.90;0.80;;;7.80;99.90;;;;;;5074788;28;20171;-87
2020/12/16 02:47:23;;;;;;;0.10;0.10;;;7.70;99.90;;;;;;5073088;28;20244;-85
2020/12/16 02:49:49;;;;;;;0.20;0.20;;;7.80;99.90;;;;;;5073493;28;20252;-86
2020/12/16 02:52:14;;;;;;;0.20;0.20;;;7.90;99.90;;;;;;5073001;28;20212;-86
2020/12/16 02:54:40;;;;;;;0.57;0.20;;;8.00;99.90;;;;;;5073891;28;20651;-86
2020/12/16 02:57:06;;;;;;;0.40;0.33;;;8.00;99.90;;;;;;5072546;28;20185;-84
2020/12/16 02:59:31;;;;;;;0.20;0.20;;;8.10;99.90;;;;;;5072231;28;20173;-85
2020/12/16 03:01:58;;;;;;;0.20;0.20;;;8.20;99.90;;;;;;5080712;28;20202;-85
2020/12/16 03:04:24;;;;;;;0.43;0.43;;;8.20;99.90;;;;;;5074179;28;20977;-85
2020/12/16 03:06:52;;;;;;;0.10;0.10;;;8.30;99.90;;;;;;5079006;28;20255;-85
2020/12/16 03:09:23;;;;;;;0.10;0.10;;;8.30;99.90;;;;;;5076732;28;20185;-84
2020/12/16 03:11:54;;;;;;;0.17;0.17;;;8.40;99.90;;;;;;5072944;28;20222;-84
2020/12/16 03:14:19;;;;;;;0.67;0.23;;;8.30;99.90;;;;;;5070143;28;20188;-86
2020/12/16 03:16:45;;;;;;;0.20;0.20;;;8.30;99.90;;;;;;5072496;28;20609;-86
2020/12/16 03:19:11;;;;;;;0.10;0.10;;;8.30;99.90;;;;;;5072048;28;20251;-85
2020/12/16 03:21:37;;;;;;;0.20;0.20;;;8.40;99.90;;;;;;5074136;28;20691;-87
2020/12/16 03:24:03;;;;;;;0.20;0.20;;;8.40;99.90;;;;;;5072497;28;20224;-85
2020/12/16 03:26:28;;;;;;;0.20;0.20;;;8.30;99.90;;;;;;5072061;28;20206;-86
2020/12/16 03:28:54;;;;;;;0.10;0.10;;;8.10;99.90;;;;;;5072879;28;20208;-86
2020/12/16 03:31:19;;;;;;;0.40;0.40;;;8.00;99.90;;;;;;5070637;28;20201;-86
2020/12/16 03:33:46;;;;;;;0.10;0.10;;;8.20;99.90;;;;;;5073107;28;20605;-86
2020/12/16 03:36:14;;;;;;;0.10;0.10;;;8.10;99.90;;;;;;5066834;28;20250;-86
2020/12/16 03:38:40;;;;;;;0.20;0.20;;;8.20;99.90;;;;;;5073121;28;20656;-85
2020/12/16 03:41:06;;;;;;;0.20;0.20;;;8.30;99.90;;;;;;5071604;28;20215;-86
2020/12/16 03:43:32;;;;;;;0.33;0.33;;;8.30;99.90;;;;;;5071133;28;20276;-85
2020/12/16 03:45:58;;;;;;;0.17;0.17;;;8.30;99.90;;;;;;5072678;28;20756;-85
2020/12/16 03:48:23;;;;;;;0.20;0.20;;;8.30;99.90;;;;;;5073564;28;20193;-86
2020/12/16 03:50:49;;;;;;;0.20;0.20;;;8.30;99.90;;;;;;5072228;28;20207;-86
2020/12/16 03:53:14;;;;;;;0.27;0.27;;;8.30;99.90;;;;;;5072743;28;20551;-86
2020/12/16 03:55:40;;;;;;;0.13;0.13;;;8.00;99.90;;;;;;5071139;28;20186;-85
2020/12/16 03:58:05;;;;;;;0.20;0.20;;;7.70;99.90;;;;;;5072477;28;20196;-85
2020/12/16 04:00:31;;;;;;;0.17;0.17;;;7.40;99.90;;;;;;5072397;28;20181;-86
2020/12/16 04:02:56;;;;;;;0.20;0.20;;;7.60;99.90;;;;;;5070759;28;20210;-85
2020/12/16 04:05:22;;;;;;;0.40;0.40;;;7.80;99.90;;;;;;5072489;28;20792;-86
2020/12/16 04:07:48;;;;;;;0.77;0.20;;;7.90;99.90;;;;;;5083216;28;20196;-86
2020/12/16 04:10:13;;;;;;;0.10;0.10;;;8.00;99.90;;;;;;5071405;28;20181;-84
2020/12/16 04:12:39;;;;;;;0.20;0.20;;;8.20;99.90;;;;;;5071206;28;20205;-85
2020/12/16 04:15:05;;;;;;;0.33;0.33;;;8.20;99.90;;;;;;5072371;28;20710;-86
2020/12/16 04:17:34;;;;;;;0.10;0.10;;;8.30;99.90;;;;;;5071204;28;20187;-85
2020/12/16 04:20:01;;;;;;;0.63;0.43;;;8.30;99.90;;;;;;5071841;28;20273;-85
2020/12/16 04:22:28;;;;;;;0.27;0.20;;;8.30;99.90;;;;;;5075717;28;20297;-86
2020/12/16 04:24:55;;;;;;;0.30;0.30;;;8.10;99.90;;;;;;5070337;28;20189;-86
2020/12/16 04:27:20;;;;;;;0.10;0.10;;;8.10;99.90;;;;;;5071056;28;20258;-85
2020/12/16 04:29:46;;;;;;;0.30;0.23;;;8.20;99.90;;;;;;5072240;28;20189;-85
2020/12/16 04:32:12;;;;;;;0.60;0.57;;;8.30;99.90;;;;;;5072388;28;20228;-87
2020/12/16 04:34:37;;;;;;;0.30;0.30;;;8.40;99.90;;;;;;5071132;28;20188;-86
2020/12/16 04:37:03;;;;;;;0.20;0.20;;;8.50;99.90;;;;;;5072479;28;20216;-87
2020/12/16 04:39:29;;;;;;;0.20;0.20;;;8.50;99.90;;;;;;5070501;28;20595;-88
2020/12/16 04:41:55;;;;;;;0.37;0.37;;;8.60;99.90;;;;;;5071838;28;20224;-87
2020/12/16 04:44:21;;;;;;;0.27;0.27;;;8.60;99.90;;;;;;5072135;28;20189;-86
2020/12/16 04:46:48;;;;;;;0.10;0.10;;;8.60;99.90;;;;;;5070901;28;20635;-86
2020/12/16 04:49:14;;;;;;;0.10;0.10;;;8.60;99.90;;;;;;5070511;28;20188;-87
2020/12/16 04:51:44;;;;;;;0.37;0.30;;;8.40;99.90;;;;;;5069458;28;20240;-86
2020/12/16 04:54:11;;;;;;;0.20;0.20;;;8.20;99.90;;;;;;5071532;28;20192;-85
2020/12/16 04:56:38;;;;;;;0.30;0.20;;;8.10;99.90;;;;;;5070854;28;20196;-87
2020/12/16 04:59:08;;;;;;;0.30;0.30;;;7.90;99.90;;;;;;5070223;28;20192;-86
2020/12/16 05:01:39;;;;;;;0.20;0.20;;;7.90;99.90;;;;;;5073540;28;20214;-86
2020/12/16 05:04:04;;;;;;;0.10;0.10;;;8.00;99.90;;;;;;5080267;28;20655;-86
2020/12/16 05:06:42;;;;;;;0.17;0.17;;;7.90;99.90;;;;;;5072744;28;20283;-87
2020/12/16 05:09:12;;;;;;;0.10;0.10;;;7.80;99.90;;;;;;5077791;28;20181;-86
2020/12/16 05:11:49;;;;;;;0.30;0.30;;;7.90;99.90;;;;;;5063238;28;20218;-86
2020/12/16 05:14:18;;;;;;;0.20;0.20;;;7.90;99.90;;;;;;5060962;28;20181;-85
2020/12/16 05:17:02;;;;;;;0.10;0.10;;;7.80;99.90;;;;;;5070706;28;20185;-86
2020/12/16 05:19:45;;;;;;;0.47;0.47;;;7.80;99.90;;;;;;5069067;28;20197;-87
2020/12/16 05:22:17;;;;;;;0.77;0.77;;;7.80;99.90;;;;;;5071315;28;20210;-86
2020/12/16 05:24:44;;;;;;;0.13;0.13;;;7.80;99.90;;;;;;5065213;28;20189;-86
2020/12/16 05:27:15;;;;;;;0.40;0.40;;;7.90;99.90;;;;;;5065863;28;20210;-86
2020/12/16 05:29:41;;;;;;;0.30;0.30;;;8.00;99.90;;;;;;5068798;28;20196;-87
2020/12/16 05:32:16;;;;;;;0.20;0.20;;;8.10;99.90;;;;;;5059556;28;20707;-87
2020/12/16 05:34:42;;;;;;;0.30;0.30;;;8.20;99.90;;;;;;5069822;28;20204;-86
2020/12/16 05:37:33;;;;;;;0.20;0.20;;;8.20;99.90;;;;;;5069965;28;20608;-85
2020/12/16 05:40:05;;;;;;;0.00;0.00;;;8.40;99.90;;;;;;5067533;28;20216;-87
2020/12/16 05:42:31;;;;;;;1.13;0.67;;;8.50;99.90;;;;;;5069567;28;20285;-86
2020/12/16 05:45:05;;;;;;;0.40;0.40;;;8.60;99.90;;;;;;5064790;28;20185;-87
2020/12/16 05:47:31;;;;;;;0.30;0.30;;;8.70;99.90;;;;;;5070629;28;20316;-86
2020/12/16 05:49:56;;;;;;;0.53;0.20;;;8.80;99.90;;;;;;5069311;28;20964;-86
2020/12/16 05:52:22;;;;;;;0.57;0.20;;;8.60;99.90;;;;;;5069579;28;20208;-87
2020/12/16 05:54:49;;;;;;;0.10;0.10;;;8.60;99.90;;;;;;5067945;28;20216;-88
2020/12/16 05:57:25;;;;;;;0.40;0.40;;;8.50;99.90;;;;;;5069711;28;20677;-87
2020/12/16 06:00:14;;;;;;;0.57;0.50;;;8.30;99.90;;;;;;5069535;28;20184;-85
2020/12/16 06:02:44;;;;;;;0.50;0.20;;;8.40;99.90;;;;;;5072564;28;20201;-87
2020/12/16 06:05:15;;;;;;;0.40;0.33;;;8.30;99.90;;;;;;5065715;28;20244;-87
2020/12/16 06:07:48;;;;;;;0.20;0.20;;;8.30;99.90;;;;;;5071388;28;20704;-86
2020/12/16 06:10:14;;;;;;;0.10;0.10;;;8.40;99.90;;;;;;5071843;28;20185;-87
2020/12/16 06:12:44;;;;;;;0.60;0.60;;;8.50;99.90;;;;;;5072264;28;20198;-86
2020/12/16 06:15:11;;;;;;;3.17;0.63;;;8.50;99.90;;;;;;5072878;28;20284;-87
2020/12/16 06:17:43;;;;;;;0.83;0.53;;;8.50;99.90;;;;;;5073266;28;20177;-85
2020/12/16 06:20:14;;;;;;;0.77;0.60;;;8.50;99.90;;;;;;5070476;28;20207;-85
2020/12/16 06:22:42;;;;;;;0.13;0.13;;;8.50;99.90;;;;;;5079107;28;20211;-86
2020/12/16 06:25:08;;;;;;;0.50;0.40;;;8.50;99.90;;;;;;5073110;28;20250;-85
2020/12/16 06:27:54;;;;;;;0.10;0.10;;;8.40;99.90;;;;;;5061700;28;20623;-85
2020/12/16 06:30:27;;;;;;;0.53;0.53;;;8.40;99.90;;;;;;5071557;28;20203;-86
2020/12/16 06:33:06;;;;;;;0.50;0.50;;;8.20;99.90;;;;;;5070359;28;20201;-85
2020/12/16 06:35:32;;;;;;;0.47;0.47;;;8.20;99.90;;;;;;5068450;28;20214;-86
2020/12/16 06:38:18;;;;;;;0.30;0.30;;;8.10;99.90;;;;;;5072608;28;20226;-84
2020/12/16 06:40:48;;;;;;;3.53;1.27;;;8.10;99.90;;;;;;5056565;28;20220;-85
2020/12/16 06:43:32;;;;;;;0.47;0.47;;;8.00;99.90;;;;;;5069397;28;20559;-84
2020/12/16 06:46:40;;;;;;;0.50;0.50;;;8.10;99.90;;;;;;5065328;28;20214;-83
2020/12/16 06:49:25;;;;;;;0.70;0.70;;;8.00;99.90;;;;;;5067857;28;20191;-83
2020/12/16 06:51:54;;;;;;;0.67;0.67;;;8.00;99.90;;;;;;5071002;28;20250;-83
2020/12/16 06:54:23;;;;;;;0.97;0.90;;;7.90;99.90;;;;;;5070996;28;20185;-83
2020/12/16 06:57:09;;;;;;;0.53;0.53;;;7.90;99.90;;;;;;5066906;28;20184;-82
2020/12/16 06:59:55;;;;;;;0.90;0.90;;;7.90;99.90;;;;;;5069042;28;20186;-82
2020/12/16 07:02:22;;;;;;;0.77;0.40;;;8.00;99.90;;;;;;5069682;28;20196;-82
2020/12/16 07:04:48;;;;;;;1.40;0.80;;;8.20;99.90;;;;;;5070134;28;20184;-83
2020/12/16 07:07:48;;;;;;;0.30;0.30;;;8.30;99.90;;;;;;5066856;28;20549;-83
2020/12/16 07:10:33;;;;;;;0.60;0.60;;;8.50;99.90;;;;;;5068294;28;20174;-83
2020/12/16 07:13:36;;;;;;;0.30;0.30;;;8.70;99.90;;;;;;5054415;28;20592;-84
2020/12/16 07:16:12;;;;;;;0.90;0.47;;;8.80;99.90;;;;;;5067386;28;20732;-83
2020/12/16 07:18:44;;;;;;;1.70;0.50;;;8.80;99.90;;;;;;5064259;28;20192;-83
2020/12/16 07:21:14;;;;;;;0.47;0.47;;;9.00;99.90;;;;;;5063876;28;20214;-84
2020/12/16 07:23:54;;;;;;;0.70;0.70;;;9.10;99.90;;;;;;5061562;28;20177;-84
2020/12/16 07:26:26;;;;;;;0.30;0.30;;;9.10;99.90;;;;;;5068107;28;20206;-84
2020/12/16 07:28:52;;;;;;;0.40;0.37;;;9.20;99.90;;;;;;5066134;28;20187;-85
2020/12/16 07:31:18;;;;;;;0.43;0.43;;;9.10;99.90;;;;;;5060607;28;20584;-83
2020/12/16 07:33:44;;;;;;;1.20;1.10;;;9.00;99.90;;;;;;5064126;28;20176;-84
2020/12/16 07:36:10;;;;;;;0.70;0.70;;;9.10;99.90;;;;;;5071089;28;20680;-85
2020/12/16 07:38:36;;;;;;;0.30;0.30;;;9.20;99.90;;;;;;5071781;28;20231;-86
2020/12/16 07:41:02;;;;;;;0.23;0.23;;;9.30;99.90;;;;;;5067268;28;20205;-85
2020/12/16 07:43:28;;;;;;;2.90;1.07;;;9.30;99.90;;;;;;5065310;28;20185;-84
2020/12/16 07:46:05;;;;;;;2.27;0.40;;;9.40;99.90;;;;;;5063963;28;20293;-84
2020/12/16 07:48:31;;;;;;;0.57;0.57;;;9.50;99.90;;;;;;5068817;28;20715;-83
2020/12/16 07:51:07;;;;;;;0.30;0.30;;;9.50;99.90;;;;;;5064915;28;20186;-83
2020/12/16 07:53:42;;;;;;;2.80;0.40;;;9.50;99.90;;;;;;5071604;28;20269;-82
2020/12/16 07:56:08;;;;;;;1.80;0.57;;;9.50;99.90;;;;;;5070198;28;20223;-82
2020/12/16 07:58:34;;;;;;;0.87;0.87;;;9.60;99.90;;;;;;5067447;28;20183;-82
2020/12/16 08:01:13;;;;;;;0.10;0.10;;;9.60;99.90;;;;;;5066120;28;20187;-82
2020/12/16 08:03:41;;;;;;;1.23;0.83;;;9.60;99.90;;;;;;5064068;28;20186;-82
2020/12/16 08:06:07;;;;;;;0.60;0.60;;;9.70;99.90;;;;;;5063699;28;20214;-82
2020/12/16 08:08:42;;;;;;;1.27;0.93;;;9.70;99.90;;;;;;5073457;28;20689;-82
2020/12/16 08:11:18;;;;;;;2.00;0.60;;;9.80;99.90;;;;;;5071880;28;20285;-80
2020/12/16 08:13:44;;;;;;;1.80;0.80;;;9.80;99.90;;;;;;5072556;28;20191;-82
2020/12/16 08:16:09;;;;;;;0.83;0.83;;;9.80;99.90;;;;;;5071911;28;20819;-82
2020/12/16 08:18:38;;;;;;;0.60;0.60;;;9.80;99.90;;;;;;5072288;28;20266;-82
2020/12/16 08:21:14;;;;;;;1.43;0.40;;;9.80;99.90;;;;;;5070867;28;20213;-83
2020/12/16 08:23:40;;;;;;;3.17;1.20;;;9.70;99.90;;;;;;5079141;28;20189;-83
2020/12/16 08:26:05;;;;;;;0.50;0.50;;;9.40;99.90;;;;;;5068915;28;20216;-81
2020/12/16 08:28:31;;;;;;;0.37;0.37;;;9.40;99.90;;;;;;5072326;28;20192;-82
2020/12/16 08:30:58;;;;;;;2.73;0.70;;;9.50;99.90;;;;;;5065185;28;20183;-79
2020/12/16 08:33:24;;;;;;;3.90;0.70;;;9.50;99.90;;;;;;5070842;28;20243;-79
2020/12/16 08:36:05;;;;;;;0.83;0.83;;;9.50;99.90;;;;;;5064070;28;20633;-79
2020/12/16 08:38:39;;;;;;;0.97;0.77;;;9.60;99.90;;;;;;5071534;28;20227;-79
2020/12/16 08:41:09;;;;;;;0.50;0.50;;;9.70;99.90;;;;;;5067481;28;20206;-79
2020/12/16 08:43:37;;;;;;;1.93;1.80;;;9.60;99.90;;;;;;5066727;28;20263;-82
2020/12/16 08:46:09;;;;;;;0.30;0.30;;;9.50;99.90;;;;;;5070710;28;20213;-82
2020/12/16 08:48:49;;;;;;;1.23;0.90;;;9.40;99.90;;;;;;5068731;28;20183;-81
2020/12/16 08:51:20;;;;;;;3.13;0.50;;;9.30;99.90;;;;;;5069797;28;20207;-82
2020/12/16 08:53:54;;;;;;;0.73;0.73;;;9.30;99.90;;;;;;5069325;28;20715;-82
2020/12/16 08:56:42;;;;;;;0.40;0.33;;;9.40;99.90;;;;;;5071315;28;20267;-82
2020/12/16 08:59:07;;;;;;;0.93;0.77;;;9.40;99.90;;;;;;5068169;28;20198;-83
2020/12/16 09:01:34;;;;;;;1.17;0.80;;;9.30;99.90;;;;;;5074697;28;20256;-83
2020/12/16 09:04:00;;;;;;;0.43;0.43;;;9.20;99.90;;;;;;5071304;28;20197;-83
2020/12/16 09:06:26;;;;;;;0.57;0.57;;;9.40;99.90;;;;;;5069218;28;20210;-83
2020/12/16 09:08:52;;;;;;;0.40;0.40;;;9.50;99.90;;;;;;5061011;28;20181;-83
2020/12/16 09:11:19;;;;;;;0.63;0.40;;;9.60;99.90;;;;;;5067832;28;20700;-83
2020/12/16 09:13:45;;;;;;;0.30;0.30;;;9.60;99.90;;;;;;5071204;28;20181;-84
2020/12/16 09:16:19;;;;;;;0.50;0.50;;;9.60;99.90;;;;;;5069437;28;20664;-83
2020/12/16 09:18:46;;;;;;;0.40;0.40;;;9.50;99.90;;;;;;5081698;28;20186;-83
2020/12/16 09:21:12;;;;;;;0.80;0.80;;;9.40;99.90;;;;;;5068861;28;20217;-84
2020/12/16 09:23:38;;;;;;;1.07;1.00;;;9.40;99.90;;;;;;5077699;28;20190;-83
2020/12/16 09:26:03;;;;;;;1.07;0.93;;;9.40;99.90;;;;;;5070966;28;20841;-84
2020/12/16 09:28:37;;;;;;;1.00;0.67;;;9.40;99.90;;;;;;5070309;28;20182;-83
2020/12/16 09:31:16;;;;;;;0.67;0.47;;;9.50;99.90;;;;;;5068934;28;20215;-83
2020/12/16 09:33:43;;;;;;;0.47;0.47;;;9.60;99.90;;;;;;5069252;28;20182;-83
2020/12/16 09:36:08;;;;;;;0.30;0.30;;;9.80;99.90;;;;;;5064986;28;20195;-82
2020/12/16 09:38:34;;;;;;;1.17;0.90;;;9.60;99.90;;;;;;5071142;28;20273;-84
2020/12/16 09:41:00;;;;;;;0.27;0.27;;;9.60;99.90;;;;;;5065592;28;20201;-83
2020/12/16 09:43:53;;;;;;;1.13;0.37;;;9.70;99.90;;;;;;5065401;28;20193;-83
2020/12/16 09:46:22;;;;;;;0.80;0.80;;;9.70;99.90;;;;;;5065608;28;20222;-84
2020/12/16 09:48:49;;;;;;;2.30;0.70;;;9.70;99.90;;;;;;5068824;28;20177;-84
2020/12/16 09:51:19;;;;;;;0.53;0.53;;;9.60;99.90;;;;;;5063591;28;20203;-83
2020/12/16 09:53:46;;;;;;;0.53;0.53;;;9.60;99.90;;;;;;5069019;28;20203;-83
2020/12/16 09:56:32;;;;;;;0.40;0.33;;;9.60;99.90;;;;;;5058394;28;20192;-82
2020/12/16 09:58:57;;;;;;;0.70;0.70;;;9.60;99.90;;;;;;5064495;28;20686;-82
2020/12/16 10:01:23;;;;;;;0.30;0.30;;;9.70;99.90;;;;;;5066716;28;20216;-83
2020/12/16 10:03:49;;;;;;;0.80;0.73;;;9.80;99.90;;;;;;5058275;28;20645;-82
2020/12/16 10:06:16;;;;;;;0.53;0.53;;;9.90;99.90;;;;;;5058755;28;20261;-83
2020/12/16 10:08:42;;;;;;;0.93;0.80;;;9.90;99.90;;;;;;5062484;28;20186;-82
2020/12/16 10:11:12;;;;;;;2.20;2.07;;;9.90;99.90;;;;;;5061629;28;20205;-86
2020/12/16 10:13:39;;;;;;;0.77;0.77;;;9.90;99.90;;;;;;5065094;28;20190;-82
2020/12/16 10:16:06;;;;;;;0.27;0.27;;;10.00;99.90;;;;;;5059550;28;20682;-85
2020/12/16 10:18:32;;;;;;;0.67;0.67;;;9.90;99.90;;;;;;5068750;28;20208;-83
2020/12/16 10:20:58;;;;;;;2.00;1.63;;;10.10;99.90;;;;;;5064769;28;20920;-84
2020/12/16 10:23:23;;;;;;;0.90;0.90;;;10.10;99.90;;;;;;5057425;28;20199;-84
2020/12/16 10:25:49;;;;;;;1.27;1.20;;;10.10;99.90;;;;;;5061711;28;20204;-86
2020/12/16 10:28:15;;;;;;;1.43;0.97;;;10.10;99.90;;;;;;5057878;28;20183;-84
2020/12/16 10:30:40;;;;;;;0.77;0.77;;;10.20;99.90;;;;;;5058705;28;20267;-83
2020/12/16 10:33:06;;;;;;;1.03;0.57;;;10.40;99.90;;;;;;5057594;28;20205;-83
2020/12/16 10:35:32;;;;;;;1.00;1.00;;;10.30;99.90;;;;;;5062713;28;20177;-84
2020/12/16 10:37:57;;;;;;;1.33;0.73;;;10.50;99.90;;;;;;5064346;28;20185;-83
2020/12/16 10:40:25;;;;;;;0.70;0.53;;;10.50;99.90;;;;;;5057160;28;20185;-84
2020/12/16 10:42:51;;;;;;;0.20;0.20;;;10.60;99.90;;;;;;5064123;28;20199;-84
2020/12/16 10:45:16;;;;;;;1.67;0.97;;;10.80;99.90;;;;;;5061678;28;20178;-84
2020/12/16 10:47:42;;;;;;;1.17;0.63;;;11.10;99.90;;;;;;5061618;28;20217;-84
2020/12/16 10:50:08;;;;;;;0.87;0.87;;;11.10;99.90;;;;;;5065487;28;20309;-84
2020/12/16 10:52:34;;;;;;;1.33;0.93;;;10.70;99.90;;;;;;5062601;28;20222;-85
2020/12/16 10:54:59;;;;;;;2.40;0.97;;;10.70;99.90;;;;;;5064051;28;20218;-84
2020/12/16 10:57:25;;;;;;;0.70;0.70;;;11.00;99.90;;;;;;5063726;28;20705;-83
2020/12/16 10:59:51;;;;;;;0.57;0.57;;;10.90;99.90;;;;;;5072105;28;20269;-84
2020/12/16 11:02:16;;;;;;;0.50;0.50;;;10.70;99.90;;;;;;5071029;28;20264;-84
2020/12/16 11:04:44;;;;;;;2.07;1.17;;;10.80;99.90;;;;;;5070033;28;20223;-84
2020/12/16 11:07:09;;;;;;;1.23;0.70;;;10.80;99.90;;;;;;5077420;28;20213;-84
2020/12/16 11:09:35;;;;;;;1.50;1.40;;;10.90;99.90;;;;;;5066924;28;20186;-83
2020/12/16 11:12:01;;;;;;;0.40;0.40;;;11.20;99.90;;;;;;5073961;28;20203;-84
2020/12/16 11:14:27;;;;;;;1.60;0.60;;;11.40;99.90;;;;;;5071163;28;20195;-84
2020/12/16 11:16:55;;;;;;;0.30;0.30;;;11.40;99.90;;;;;;5067790;28;20192;-84
2020/12/16 11:19:21;;;;;;;1.03;0.83;;;11.10;99.90;;;;;;5062865;28;20208;-82
2020/12/16 11:21:51;;;;;;;1.17;0.90;;;11.10;99.90;;;;;;5067196;28;20237;-83
2020/12/16 11:24:22;;;;;;;1.60;1.03;;;11.10;99.90;;;;;;5068825;28;20190;-83
2020/12/16 11:26:50;;;;;;;0.97;0.93;;;11.00;99.90;;;;;;5071676;28;20208;-84
2020/12/16 11:29:17;;;;;;;0.87;0.60;;;10.90;99.90;;;;;;5069016;28;20275;-84
2020/12/16 11:31:50;;;;;;;0.50;0.50;;;11.00;99.90;;;;;;5065691;28;20263;-84
2020/12/16 11:34:17;;;;;;;0.40;0.40;;;11.00;99.90;;;;;;5062986;28;20190;-83
2020/12/16 11:36:44;;;;;;;2.03;0.63;;;11.00;99.90;;;;;;5064365;28;20214;-84
2020/12/16 11:39:11;;;;;;;1.10;0.57;;;11.20;99.90;;;;;;5056812;28;20185;-84
2020/12/16 11:41:41;;;;;;;0.87;0.87;;;11.20;99.90;;;;;;5067565;28;20689;-84
2020/12/16 11:44:06;;;;;;;2.40;0.60;;;11.10;99.90;;;;;;5068609;28;20187;-83
2020/12/16 11:46:32;;;;;;;1.20;1.10;;;11.10;99.90;;;;;;5066224;28;20217;-83
2020/12/16 11:48:59;;;;;;;2.77;1.30;;;11.10;99.90;;;;;;5072861;28;20297;-80
2020/12/16 11:51:25;;;;;;;2.93;1.27;;;10.80;99.90;;;;;;5074979;28;20299;-82
2020/12/16 11:53:54;;;;;;;1.03;0.93;;;10.70;99.90;;;;;;5072705;28;20563;-80
2020/12/16 11:56:20;;;;;;;0.57;0.57;;;10.60;99.90;;;;;;5068948;28;20733;-83
2020/12/16 11:58:46;;;;;;;0.97;0.73;;;10.70;99.90;;;;;;5070085;28;20189;-83
2020/12/16 12:01:12;;;;;;;0.50;0.50;;;10.60;99.90;;;;;;5069460;28;20257;-83
2020/12/16 12:03:38;;;;;;;0.87;0.67;;;10.70;99.90;;;;;;5076699;28;20208;-83
2020/12/16 12:06:08;;;;;;;1.87;1.53;;;10.70;99.90;;;;;;5071527;28;20209;-83
2020/12/16 12:08:34;;;;;;;1.20;1.10;;;10.80;99.90;;;;;;5068728;28;20247;-83
2020/12/16 12:10:59;;;;;;;1.23;0.83;;;10.90;99.90;;;;;;5070253;28;20192;-84
2020/12/16 12:13:25;;;;;;;2.00;0.53;;;11.10;99.90;;;;;;5067477;28;20222;-81
2020/12/16 12:15:50;;;;;;;0.23;0.23;;;11.10;99.90;;;;;;5068937;28;20276;-82
2020/12/16 12:18:16;;;;;;;0.90;0.80;;;11.20;99.90;;;;;;5073022;28;20186;-83
2020/12/16 12:20:43;;;;;;;0.57;0.57;;;10.90;99.90;;;;;;5074657;28;20207;-83
2020/12/16 12:23:08;;;;;;;0.67;0.67;;;11.00;99.90;;;;;;5079167;28;20240;-84
2020/12/16 12:25:34;;;;;;;4.03;1.00;;;11.10;99.90;;;;;;5070513;28;20180;-84
2020/12/16 12:27:59;;;;;;;0.37;0.37;;;11.10;99.90;;;;;;5064287;28;20717;-84
2020/12/16 12:30:25;;;;;;;3.73;1.10;;;11.20;99.90;;;;;;5071798;28;20237;-83
2020/12/16 12:32:51;;;;;;;1.07;0.83;;;11.20;99.90;;;;;;5071919;28;20292;-84
2020/12/16 12:35:16;;;;;;;1.70;0.70;;;11.30;99.90;;;;;;5074094;28;20183;-83
2020/12/16 12:37:42;;;;;;;1.73;0.90;;;10.80;99.90;;;;;;5065485;28;20280;-83
2020/12/16 12:40:07;;;;;;;0.80;0.80;;;10.70;99.90;;;;;;5075179;28;20200;-83
2020/12/16 12:42:33;;;;;;;0.63;0.63;;;10.60;99.90;;;;;;5070665;28;20263;-83
2020/12/16 12:44:59;;;;;;;0.43;0.43;;;10.60;99.90;;;;;;5070335;28;20200;-83
2020/12/16 12:47:24;;;;;;;0.90;0.90;;;10.80;99.90;;;;;;5072788;28;20309;-82
2020/12/16 12:49:50;;;;;;;1.83;0.90;;;10.90;99.90;;;;;;5072836;28;20231;-83
2020/12/16 12:52:16;;;;;;;0.97;0.83;;;11.00;99.90;;;;;;5073995;28;20201;-82
2020/12/16 12:54:42;;;;;;;2.10;0.90;;;11.10;99.90;;;;;;5065239;28;20234;-83
2020/12/16 12:57:08;;;;;;;0.67;0.67;;;11.10;99.90;;;;;;5072560;28;20282;-83
2020/12/16 12:59:34;;;;;;;0.47;0.47;;;11.20;99.90;;;;;;5063271;28;20799;-83
2020/12/16 13:01:59;;;;;;;2.07;0.83;;;11.20;99.90;;;;;;5086604;28;20215;-83
2020/12/16 13:04:25;;;;;;;0.90;0.90;;;11.30;99.90;;;;;;5069829;28;20186;-83